Terminal Aerodrome Forecast
Issued by NWS

Home | Current Version | Previous Version | Text Only | Print | Product List | Glossary On
Versions: 1 2 3 4 5 6 7 8 9 10 11 12 13 14 15 16 17 18 19 20 21 22 23
000
FTUS44 KFWD 300520
TAFDAL
TAF
KDAL 300520Z 3006/3106 10006KT P6SM SCT080
     FM301400 12008KT P6SM BKN015
     FM301900 13008KT P6SM OVC035
     FM310100 14007KT P6SM OVC050=

USA.gov is the U.S. government's official web portal to all federal, state and local government web resources and services.